NCAR-RAP Real-Time Weather Data

Output produced by METARs form (23 February 2020  02:13 UTC)
found at http://weather.rap.ucar.edu/surface/
 
KSGF 230152Z 18006KT 10SM CLR 07/M06 A3013 RMK AO2 SLP209 T00721061
KSGF 230052Z 19008KT 10SM OVC055 10/M07 A3012 RMK AO2 SLP207 T01001067